Time;durP1;ratioP1;P1;durP2;ratioP2;P2;SDS_P1;SDS_P2;PMS_P1;PMS_P2;Temp;Humidity;BMP_temperature;BMP_pressure;BME280_temperature;BME280_humidity;BME280_pressure;Samples;Min_cycle;Max_cycle;Signal;HPM_P1;HPM_P2
2022/01/08 00:00:34;;;;;;;15.93;9.63;;;;;;;;;;780828;177;918420;-68
2022/01/08 00:03:00;;;;;;;16.77;10.10;;;;;;;;;;779578;177;921051;-68
2022/01/08 00:05:26;;;;;;;15.88;10.23;;;;;;;;;;777253;176;921778;-68
2022/01/08 00:07:52;;;;;;;16.75;9.82;;;;;;;;;;770413;176;918978;-68
2022/01/08 00:10:18;;;;;;;14.13;9.40;;;;;;;;;;773269;181;919983;-68
2022/01/08 00:12:43;;;;;;;19.50;10.80;;;;;;;;;;759665;182;918678;-68
2022/01/08 00:15:09;;;;;;;19.10;11.77;;;;;;;;;;762997;182;918857;-68
2022/01/08 00:17:35;;;;;;;19.23;11.27;;;;;;;;;;789997;177;919181;-68
2022/01/08 00:20:01;;;;;;;16.70;11.07;;;;;;;;;;778485;177;919656;-68
2022/01/08 00:22:27;;;;;;;23.30;11.83;;;;;;;;;;778485;176;919569;-68
2022/01/08 00:24:53;;;;;;;18.30;10.77;;;;;;;;;;783308;177;918805;-67
2022/01/08 00:27:19;;;;;;;14.87;10.63;;;;;;;;;;780784;177;928529;-68
2022/01/08 00:29:45;;;;;;;20.90;12.00;;;;;;;;;;778575;177;921271;-67
2022/01/08 00:32:10;;;;;;;16.12;10.38;;;;;;;;;;785477;176;914075;-68
2022/01/08 00:34:36;;;;;;;24.13;11.20;;;;;;;;;;781590;177;963196;-68
2022/01/08 00:37:02;;;;;;;22.40;12.90;;;;;;;;;;781497;176;915065;-67
2022/01/08 00:39:29;;;;;;;33.22;17.90;;;;;;;;;;783050;176;929358;-66
2022/01/08 00:41:54;;;;;;;28.43;18.13;;;;;;;;;;790244;177;908231;-67
2022/01/08 00:44:20;;;;;;;31.70;18.90;;;;;;;;;;780411;174;910821;-67
2022/01/08 00:46:47;;;;;;;28.42;16.87;;;;;;;;;;783868;176;910782;-68
2022/01/08 00:49:12;;;;;;;35.33;18.47;;;;;;;;;;769950;180;921615;-68
2022/01/08 00:51:38;;;;;;;20.43;13.40;;;;;;;;;;780704;178;928396;-68
2022/01/08 00:54:04;;;;;;;27.75;15.15;;;;;;;;;;779466;178;919805;-67
2022/01/08 00:56:30;;;;;;;23.60;13.73;;;;;;;;;;788753;178;917967;-68
2022/01/08 00:58:56;;;;;;;17.97;10.40;;;;;;;;;;782257;176;917816;-67
2022/01/08 01:01:21;;;;;;;24.37;14.00;;;;;;;;;;784786;176;921876;-68
2022/01/08 01:03:49;;;;;;;17.30;9.97;;;;;;;;;;788742;177;918501;-67
2022/01/08 01:06:14;;;;;;;25.83;15.57;;;;;;;;;;779304;177;912997;-68
2022/01/08 01:08:40;;;;;;;24.80;12.67;;;;;;;;;;782364;176;918508;-68
2022/01/08 01:11:06;;;;;;;22.90;16.00;;;;;;;;;;775790;180;914822;-67
2022/01/08 01:13:32;;;;;;;29.73;17.40;;;;;;;;;;780536;177;940198;-67
2022/01/08 01:15:58;;;;;;;19.55;13.68;;;;;;;;;;779435;177;918769;-67
2022/01/08 01:18:24;;;;;;;23.55;13.23;;;;;;;;;;783217;177;947703;-67
2022/01/08 01:20:50;;;;;;;21.43;13.30;;;;;;;;;;772272;180;915478;-68
2022/01/08 01:23:20;;;;;;;19.70;13.17;;;;;;;;;;780938;177;918883;-67
2022/01/08 01:25:55;;;;;;;18.80;11.97;;;;;;;;;;772623;175;916201;-67
2022/01/08 01:28:34;;;;;;;19.80;11.97;;;;;;;;;;783204;178;916452;-67
2022/01/08 01:41:13;;;;;;;24.67;11.60;;;;;;;;;;787029;176;915614;-68
2022/01/08 01:41:19;;;;;;;19.65;12.07;;;;;;;;;;770250;181;915023;-68
2022/01/08 01:47:00;;;;;;;18.43;9.60;;;;;;;;;;772346;181;921456;-68
2022/01/08 01:48:33;;;;;;;15.87;9.60;;;;;;;;;;749950;184;917929;-68
2022/01/08 01:50:59;;;;;;;15.00;10.17;;;;;;;;;;754916;184;919285;-67
2022/01/08 01:53:24;;;;;;;15.37;10.40;;;;;;;;;;785142;176;1019476;-67
2022/01/08 01:55:50;;;;;;;18.65;11.57;;;;;;;;;;779845;177;1021502;-68
2022/01/08 01:58:16;;;;;;;16.53;11.10;;;;;;;;;;781440;176;919506;-66
2022/01/08 02:00:42;;;;;;;16.60;11.10;;;;;;;;;;791772;176;916860;-67
2022/01/08 02:03:08;;;;;;;16.77;11.67;;;;;;;;;;784198;176;916810;-67
2022/01/08 02:05:34;;;;;;;16.70;10.00;;;;;;;;;;779497;176;919780;-66
2022/01/08 02:08:00;;;;;;;18.67;10.18;;;;;;;;;;785657;177;921300;-67
2022/01/08 02:10:25;;;;;;;12.93;9.07;;;;;;;;;;780571;176;913765;-67
2022/01/08 02:12:51;;;;;;;15.50;10.25;;;;;;;;;;781579;177;919116;-67
2022/01/08 02:15:17;;;;;;;18.83;10.77;;;;;;;;;;789079;176;918848;-66
2022/01/08 02:17:43;;;;;;;16.57;10.30;;;;;;;;;;780107;176;919234;-66
2022/01/08 02:20:09;;;;;;;15.07;9.70;;;;;;;;;;778040;177;917242;-68
2022/01/08 02:22:35;;;;;;;13.40;10.23;;;;;;;;;;786297;177;918057;-67
2022/01/08 02:25:01;;;;;;;17.30;10.40;;;;;;;;;;782434;176;901107;-66
2022/01/08 02:27:27;;;;;;;18.57;10.90;;;;;;;;;;781646;176;918283;-66
2022/01/08 02:29:53;;;;;;;17.97;10.30;;;;;;;;;;783813;176;925940;-66
2022/01/08 02:32:19;;;;;;;19.53;10.63;;;;;;;;;;779594;176;918299;-67
2022/01/08 02:34:45;;;;;;;16.53;10.57;;;;;;;;;;787193;177;919241;-66
2022/01/08 02:37:10;;;;;;;15.50;11.20;;;;;;;;;;774206;181;918519;-67
2022/01/08 02:39:40;;;;;;;19.80;11.23;;;;;;;;;;761980;183;918516;-67
2022/01/08 02:42:04;;;;;;;21.27;10.95;;;;;;;;;;760782;181;918955;-67
2022/01/08 02:44:30;;;;;;;15.87;9.03;;;;;;;;;;762554;181;918915;-66
2022/01/08 02:46:55;;;;;;;18.80;11.17;;;;;;;;;;769977;181;893549;-67
2022/01/08 02:49:23;;;;;;;14.50;9.17;;;;;;;;;;754471;184;917684;-67
2022/01/08 02:51:47;;;;;;;19.95;10.57;;;;;;;;;;782251;176;919267;-67
2022/01/08 02:54:13;;;;;;;16.80;9.37;;;;;;;;;;784022;176;918494;-66
2022/01/08 02:56:39;;;;;;;14.03;9.13;;;;;;;;;;787977;173;919530;-67
2022/01/08 02:59:05;;;;;;;20.53;11.63;;;;;;;;;;788340;176;918966;-67
2022/01/08 03:01:30;;;;;;;17.43;10.20;;;;;;;;;;774467;180;919307;-66
2022/01/08 03:03:57;;;;;;;20.55;11.10;;;;;;;;;;786840;176;919365;-67
2022/01/08 03:06:22;;;;;;;17.30;10.87;;;;;;;;;;782635;176;935260;-68
2022/01/08 03:08:48;;;;;;;20.77;10.25;;;;;;;;;;786976;176;918678;-67
2022/01/08 03:11:14;;;;;;;23.50;12.20;;;;;;;;;;781355;177;918744;-67
2022/01/08 03:13:40;;;;;;;22.42;12.73;;;;;;;;;;781264;176;918795;-66
2022/01/08 03:16:06;;;;;;;21.53;12.40;;;;;;;;;;787949;176;919693;-67
2022/01/08 03:18:34;;;;;;;20.70;11.00;;;;;;;;;;775769;177;918955;-66
2022/01/08 03:21:02;;;;;;;18.10;10.70;;;;;;;;;;777438;176;933739;-67
2022/01/08 03:23:26;;;;;;;18.83;11.57;;;;;;;;;;783915;174;963587;-66
2022/01/08 03:25:51;;;;;;;16.20;10.00;;;;;;;;;;786208;176;917003;-66
2022/01/08 03:28:17;;;;;;;15.23;10.90;;;;;;;;;;780502;176;919198;-67
2022/01/08 03:30:43;;;;;;;17.23;10.32;;;;;;;;;;779043;177;919474;-66
2022/01/08 03:33:09;;;;;;;20.70;9.97;;;;;;;;;;791164;177;913306;-67
2022/01/08 03:35:35;;;;;;;17.27;10.90;;;;;;;;;;784159;175;918458;-66
2022/01/08 03:38:01;;;;;;;16.27;10.48;;;;;;;;;;782186;176;1007568;-67
2022/01/08 03:40:27;;;;;;;21.30;11.30;;;;;;;;;;787690;176;918961;-67
2022/01/08 03:42:52;;;;;;;17.67;10.63;;;;;;;;;;780924;176;914622;-67
2022/01/08 03:45:18;;;;;;;18.43;9.87;;;;;;;;;;787885;177;919802;-66
2022/01/08 03:48:17;;;;;;;15.47;9.73;;;;;;;;;;788317;177;923986;-67
2022/01/08 03:50:24;;;;;;;16.52;11.10;;;;;;;;;;784317;177;919439;-67
2022/01/08 03:52:50;;;;;;;16.63;11.17;;;;;;;;;;770527;180;913972;-67
2022/01/08 03:55:15;;;;;;;19.73;10.77;;;;;;;;;;776956;176;936895;-67
2022/01/08 03:57:41;;;;;;;19.70;11.03;;;;;;;;;;784240;176;876928;-67
2022/01/08 04:00:08;;;;;;;26.13;12.80;;;;;;;;;;786701;177;915661;-67
2022/01/08 04:02:33;;;;;;;17.33;10.73;;;;;;;;;;789876;173;920235;-67
2022/01/08 04:05:00;;;;;;;16.63;10.40;;;;;;;;;;790575;175;919632;-67
2022/01/08 04:07:26;;;;;;;16.20;11.13;;;;;;;;;;788456;176;917971;-67
2022/01/08 04:09:52;;;;;;;18.40;10.70;;;;;;;;;;778787;177;1005392;-69
2022/01/08 04:12:28;;;;;;;25.27;10.80;;;;;;;;;;779735;177;911528;-66
2022/01/08 04:15:04;;;;;;;19.30;11.80;;;;;;;;;;777345;177;913262;-66
2022/01/08 04:17:16;;;;;;;22.27;10.80;;;;;;;;;;775941;177;1013886;-65
2022/01/08 04:19:40;;;;;;;16.83;10.60;;;;;;;;;;779466;176;1015879;-67
2022/01/08 04:22:12;;;;;;;20.30;10.30;;;;;;;;;;790406;176;912422;-66
2022/01/08 04:24:35;;;;;;;17.70;12.70;;;;;;;;;;784134;176;915184;-68
2022/01/08 04:27:01;;;;;;;17.60;10.93;;;;;;;;;;783089;177;921581;-67
2022/01/08 04:29:27;;;;;;;17.17;9.57;;;;;;;;;;788397;177;920764;-67
2022/01/08 04:31:53;;;;;;;21.53;10.47;;;;;;;;;;774455;177;918922;-67
2022/01/08 04:34:19;;;;;;;15.97;10.13;;;;;;;;;;760585;180;920748;-66
2022/01/08 04:36:45;;;;;;;12.30;8.90;;;;;;;;;;784584;174;930496;-66
2022/01/08 04:39:10;;;;;;;17.17;9.57;;;;;;;;;;788635;176;918616;-66
2022/01/08 04:41:36;;;;;;;15.20;9.33;;;;;;;;;;779936;179;945306;-66
2022/01/08 04:44:06;;;;;;;17.30;9.67;;;;;;;;;;783912;177;925786;-67
2022/01/08 04:46:28;;;;;;;16.27;8.70;;;;;;;;;;785629;176;919379;-67
2022/01/08 04:48:54;;;;;;;23.73;9.93;;;;;;;;;;785135;176;919096;-67
2022/01/08 04:51:20;;;;;;;13.40;10.15;;;;;;;;;;783778;176;1000792;-66
2022/01/08 04:53:46;;;;;;;21.13;9.53;;;;;;;;;;788376;176;918502;-67
2022/01/08 04:56:12;;;;;;;13.33;8.40;;;;;;;;;;775585;179;918440;-67
2022/01/08 04:58:37;;;;;;;17.27;9.10;;;;;;;;;;777425;177;912531;-67
2022/01/08 05:01:03;;;;;;;15.67;10.03;;;;;;;;;;786453;177;910816;-66
2022/01/08 05:03:29;;;;;;;15.20;8.77;;;;;;;;;;773602;178;921287;-67
2022/01/08 05:05:55;;;;;;;16.20;8.60;;;;;;;;;;767581;181;918971;-66
2022/01/08 05:08:21;;;;;;;16.23;10.20;;;;;;;;;;787809;176;1020279;-67
2022/01/08 05:10:47;;;;;;;13.30;8.40;;;;;;;;;;777818;176;918997;-67
2022/01/08 05:13:12;;;;;;;16.17;8.77;;;;;;;;;;778156;176;920212;-67
2022/01/08 05:15:39;;;;;;;16.60;9.33;;;;;;;;;;796548;176;922009;-66
2022/01/08 05:18:07;;;;;;;16.00;9.50;;;;;;;;;;784222;177;1023970;-67
2022/01/08 05:20:34;;;;;;;13.40;8.55;;;;;;;;;;783091;177;916733;-65
2022/01/08 05:23:00;;;;;;;13.23;8.83;;;;;;;;;;784217;178;918865;-66
2022/01/08 05:25:22;;;;;;;29.30;10.20;;;;;;;;;;784705;178;915906;-66
2022/01/08 05:27:48;;;;;;;14.70;9.18;;;;;;;;;;780279;177;919444;-67
2022/01/08 05:30:14;;;;;;;20.02;9.75;;;;;;;;;;780837;177;1112527;-66
2022/01/08 05:32:40;;;;;;;15.73;9.60;;;;;;;;;;797319;176;909821;-66
2022/01/08 05:35:06;;;;;;;18.60;9.83;;;;;;;;;;782128;176;919045;-67
2022/01/08 05:37:32;;;;;;;17.15;9.00;;;;;;;;;;782645;176;915947;-66
2022/01/08 05:39:58;;;;;;;19.17;8.90;;;;;;;;;;788250;176;919458;-67
2022/01/08 05:42:23;;;;;;;14.80;9.70;;;;;;;;;;781294;176;919127;-66
2022/01/08 05:44:49;;;;;;;21.07;8.67;;;;;;;;;;787621;176;913954;-67
2022/01/08 05:47:15;;;;;;;18.13;8.77;;;;;;;;;;790200;176;924555;-66
2022/01/08 05:49:41;;;;;;;13.90;9.77;;;;;;;;;;782445;176;919232;-66
2022/01/08 05:52:08;;;;;;;18.60;9.87;;;;;;;;;;779515;176;918992;-65
2022/01/08 05:54:34;;;;;;;14.57;8.23;;;;;;;;;;786975;176;918720;-65
2022/01/08 05:56:59;;;;;;;13.77;8.80;;;;;;;;;;779359;176;921341;-65
2022/01/08 05:59:26;;;;;;;11.50;8.10;;;;;;;;;;780338;177;920323;-65
2022/01/08 06:01:51;;;;;;;15.70;9.00;;;;;;;;;;781162;177;899334;-64
2022/01/08 06:04:17;;;;;;;16.03;8.43;;;;;;;;;;780374;180;919184;-65
2022/01/08 06:06:44;;;;;;;15.80;9.07;;;;;;;;;;778709;177;919211;-65
2022/01/08 06:09:09;;;;;;;16.17;9.07;;;;;;;;;;780548;177;919972;-64
2022/01/08 06:11:35;;;;;;;17.23;9.93;;;;;;;;;;788119;176;900627;-65
2022/01/08 06:14:02;;;;;;;17.67;10.25;;;;;;;;;;782031;177;922455;-65
2022/01/08 06:16:32;;;;;;;19.87;12.30;;;;;;;;;;781321;177;1021734;-64
2022/01/08 06:18:52;;;;;;;16.98;9.63;;;;;;;;;;786717;177;919754;-64
2022/01/08 06:21:18;;;;;;;19.73;10.47;;;;;;;;;;778654;177;919345;-65
2022/01/08 06:23:44;;;;;;;14.90;8.73;;;;;;;;;;779683;177;919598;-65
2022/01/08 06:26:10;;;;;;;21.23;8.30;;;;;;;;;;788316;177;852983;-65
2022/01/08 06:28:35;;;;;;;13.40;9.53;;;;;;;;;;778370;177;919373;-66
2022/01/08 06:31:01;;;;;;;15.18;8.00;;;;;;;;;;777537;177;919449;-65
2022/01/08 06:33:27;;;;;;;12.63;8.30;;;;;;;;;;784833;177;919901;-68
2022/01/08 06:35:53;;;;;;;15.07;8.70;;;;;;;;;;779376;176;918834;-66
2022/01/08 06:38:19;;;;;;;13.73;7.60;;;;;;;;;;782416;177;919465;-66
2022/01/08 06:40:46;;;;;;;10.70;8.55;;;;;;;;;;786408;176;919480;-65
2022/01/08 06:43:11;;;;;;;18.77;9.27;;;;;;;;;;778304;178;919981;-65
2022/01/08 06:45:37;;;;;;;15.23;8.20;;;;;;;;;;769200;179;919793;-65
2022/01/08 06:48:03;;;;;;;14.63;8.53;;;;;;;;;;786618;176;919302;-67
2022/01/08 06:50:29;;;;;;;15.13;9.33;;;;;;;;;;789339;176;919605;-66
2022/01/08 06:52:55;;;;;;;15.60;9.10;;;;;;;;;;772900;177;919076;-66
2022/01/08 06:55:21;;;;;;;12.70;8.30;;;;;;;;;;781389;177;918812;-66
2022/01/08 06:57:47;;;;;;;13.63;8.43;;;;;;;;;;786446;177;1088965;-66
2022/01/08 07:00:13;;;;;;;15.30;8.87;;;;;;;;;;778447;177;918830;-67
2022/01/08 07:02:39;;;;;;;11.10;7.65;;;;;;;;;;777434;180;918387;-66
2022/01/08 07:05:05;;;;;;;13.97;8.97;;;;;;;;;;784842;177;918921;-66
2022/01/08 07:07:31;;;;;;;14.20;7.17;;;;;;;;;;790080;176;918872;-66
2022/01/08 07:09:56;;;;;;;12.63;8.63;;;;;;;;;;791212;175;919102;-66
2022/01/08 07:12:22;;;;;;;15.00;9.60;;;;;;;;;;784871;177;918853;-65
2022/01/08 07:14:48;;;;;;;18.90;11.07;;;;;;;;;;775423;177;918943;-66
2022/01/08 07:17:14;;;;;;;13.40;8.50;;;;;;;;;;776796;176;918469;-66
2022/01/08 07:19:40;;;;;;;15.90;8.70;;;;;;;;;;785976;178;918868;-66
2022/01/08 07:22:06;;;;;;;15.85;8.02;;;;;;;;;;779084;177;918857;-66
2022/01/08 07:24:32;;;;;;;12.43;6.70;;;;;;;;;;781273;176;926462;-66
2022/01/08 07:26:57;;;;;;;14.60;7.40;;;;;;;;;;780314;177;920308;-66
2022/01/08 07:29:23;;;;;;;9.03;6.17;;;;;;;;;;778240;177;953341;-66
2022/01/08 07:31:49;;;;;;;10.63;6.73;;;;;;;;;;781932;177;920196;-66
2022/01/08 07:34:15;;;;;;;12.10;7.57;;;;;;;;;;784664;177;918437;-65
2022/01/08 07:36:41;;;;;;;12.53;6.53;;;;;;;;;;794831;173;933885;-64
2022/01/08 07:39:07;;;;;;;16.53;6.53;;;;;;;;;;765563;177;918932;-65
2022/01/08 07:41:33;;;;;;;9.57;6.30;;;;;;;;;;770604;179;917787;-66
2022/01/08 07:43:59;;;;;;;13.27;6.23;;;;;;;;;;771640;179;919975;-65
2022/01/08 07:46:25;;;;;;;20.17;8.67;;;;;;;;;;756659;183;914400;-64
2022/01/08 07:48:51;;;;;;;10.27;6.37;;;;;;;;;;778933;177;915426;-65
2022/01/08 07:51:17;;;;;;;11.98;7.75;;;;;;;;;;784938;177;915153;-66
2022/01/08 07:53:42;;;;;;;15.33;7.40;;;;;;;;;;778974;177;918194;-67
2022/01/08 07:56:08;;;;;;;16.48;8.70;;;;;;;;;;783028;176;919384;-65
2022/01/08 07:58:34;;;;;;;17.77;8.70;;;;;;;;;;788105;176;922359;-65
2022/01/08 08:01:00;;;;;;;16.30;8.47;;;;;;;;;;773539;176;918789;-65
2022/01/08 08:03:26;;;;;;;10.93;8.30;;;;;;;;;;777450;177;919172;-64
2022/01/08 08:05:52;;;;;;;13.53;7.87;;;;;;;;;;785023;177;918705;-65
2022/01/08 08:08:17;;;;;;;12.50;7.93;;;;;;;;;;775422;177;919380;-65
2022/01/08 08:10:43;;;;;;;11.83;7.40;;;;;;;;;;769607;180;919042;-64
2022/01/08 08:13:09;;;;;;;10.60;7.00;;;;;;;;;;769674;180;919084;-64
2022/01/08 08:15:35;;;;;;;13.63;7.63;;;;;;;;;;756238;184;918539;-64
2022/01/08 08:18:01;;;;;;;14.30;7.60;;;;;;;;;;750301;186;918674;-65
2022/01/08 08:20:27;;;;;;;15.17;7.30;;;;;;;;;;750766;184;895143;-67
2022/01/08 08:22:52;;;;;;;15.43;8.03;;;;;;;;;;788715;176;918343;-65
2022/01/08 08:25:18;;;;;;;14.80;6.70;;;;;;;;;;770697;176;920073;-65
2022/01/08 08:27:44;;;;;;;14.40;7.20;;;;;;;;;;784452;177;919229;-65
2022/01/08 08:30:10;;;;;;;12.10;7.37;;;;;;;;;;786661;177;915704;-64
2022/01/08 08:32:36;;;;;;;13.37;6.80;;;;;;;;;;781260;177;918766;-63
2022/01/08 08:35:02;;;;;;;10.30;6.50;;;;;;;;;;779386;177;919912;-64
2022/01/08 08:37:28;;;;;;;14.27;7.90;;;;;;;;;;783398;177;919384;-65
2022/01/08 08:39:54;;;;;;;11.10;6.77;;;;;;;;;;775374;177;919047;-64
2022/01/08 08:42:20;;;;;;;10.83;6.03;;;;;;;;;;782186;176;1019489;-64
2022/01/08 08:44:45;;;;;;;11.83;7.00;;;;;;;;;;782754;177;918057;-65
2022/01/08 08:47:13;;;;;;;9.53;6.10;;;;;;;;;;777050;177;921775;-64
2022/01/08 08:49:39;;;;;;;26.40;8.77;;;;;;;;;;779934;176;919607;-64
2022/01/08 08:52:05;;;;;;;14.23;6.10;;;;;;;;;;779374;177;919152;-67
2022/01/08 08:54:31;;;;;;;10.33;6.63;;;;;;;;;;791121;176;917896;-64
2022/01/08 08:56:57;;;;;;;12.63;8.63;;;;;;;;;;777730;177;919414;-64
2022/01/08 08:59:24;;;;;;;15.20;6.80;;;;;;;;;;778273;177;920290;-67
2022/01/08 09:01:48;;;;;;;12.23;7.07;;;;;;;;;;784403;177;922427;-64
2022/01/08 09:04:14;;;;;;;12.33;7.17;;;;;;;;;;785845;176;918384;-63
2022/01/08 09:06:40;;;;;;;19.70;9.30;;;;;;;;;;790036;174;764502;-62
2022/01/08 09:09:06;;;;;;;14.17;8.20;;;;;;;;;;787917;176;925306;-64
2022/01/08 09:11:32;;;;;;;12.87;8.10;;;;;;;;;;782533;176;920950;-67
2022/01/08 09:13:58;;;;;;;15.17;8.20;;;;;;;;;;787999;177;920008;-64
2022/01/08 09:16:24;;;;;;;12.20;6.80;;;;;;;;;;788725;176;914201;-64
2022/01/08 09:18:50;;;;;;;13.10;7.45;;;;;;;;;;778746;177;919323;-63
2022/01/08 09:21:15;;;;;;;14.52;6.72;;;;;;;;;;779130;177;919101;-63
2022/01/08 09:23:41;;;;;;;9.10;5.07;;;;;;;;;;784883;177;918857;-63
2022/01/08 09:26:07;;;;;;;13.50;7.47;;;;;;;;;;781867;177;918764;-63
2022/01/08 09:28:33;;;;;;;14.30;7.67;;;;;;;;;;782107;176;920225;-62
2022/01/08 09:30:59;;;;;;;12.37;7.13;;;;;;;;;;778288;176;919363;-62
2022/01/08 09:33:25;;;;;;;11.07;6.63;;;;;;;;;;777979;179;917515;-63
2022/01/08 09:35:51;;;;;;;10.43;6.87;;;;;;;;;;785065;175;919132;-63
2022/01/08 09:38:16;;;;;;;10.73;6.43;;;;;;;;;;777774;176;920317;-64
2022/01/08 09:40:42;;;;;;;13.17;7.53;;;;;;;;;;786098;176;921399;-64
2022/01/08 09:43:08;;;;;;;20.40;7.10;;;;;;;;;;778662;176;920538;-62
2022/01/08 09:45:34;;;;;;;17.37;7.73;;;;;;;;;;784935;177;918160;-62
2022/01/08 09:48:00;;;;;;;15.27;8.70;;;;;;;;;;783264;177;918666;-63
2022/01/08 09:50:26;;;;;;;13.77;6.63;;;;;;;;;;777906;176;920724;-63
2022/01/08 09:52:57;;;;;;;15.23;8.07;;;;;;;;;;778852;177;919326;-63
2022/01/08 09:55:17;;;;;;;12.73;8.43;;;;;;;;;;786266;176;918111;-62
2022/01/08 09:57:43;;;;;;;12.87;7.10;;;;;;;;;;780740;177;918660;-63
2022/01/08 10:00:10;;;;;;;16.17;7.20;;;;;;;;;;778599;177;920367;-63
2022/01/08 10:02:35;;;;;;;12.97;7.17;;;;;;;;;;788402;177;918139;-63
2022/01/08 10:05:10;;;;;;;13.87;7.87;;;;;;;;;;785289;176;916481;-64
2022/01/08 10:07:36;;;;;;;13.70;8.43;;;;;;;;;;783321;176;626883;-63
2022/01/08 10:10:18;;;;;;;12.57;9.30;;;;;;;;;;780743;177;915669;-63
2022/01/08 10:12:46;;;;;;;17.10;9.30;;;;;;;;;;780403;176;917709;-64
2022/01/08 10:17:43;;;;;;;11.23;7.70;;;;;;;;;;786254;177;623722;-63
2022/01/08 10:20:09;;;;;;;12.07;7.63;;;;;;;;;;784993;176;916492;-64
2022/01/08 10:22:34;;;;;;;11.20;6.37;;;;;;;;;;787872;176;907830;-65
2022/01/08 10:25:06;;;;;;;14.57;8.37;;;;;;;;;;783446;176;919439;-63
2022/01/08 10:27:34;;;;;;;9.20;6.23;;;;;;;;;;781132;176;919288;-63
2022/01/08 10:30:01;;;;;;;13.13;6.83;;;;;;;;;;779601;176;915588;-65
2022/01/08 10:32:27;;;;;;;14.50;7.17;;;;;;;;;;780858;179;920989;-64
2022/01/08 10:34:53;;;;;;;13.83;9.03;;;;;;;;;;781839;176;916702;-64
2022/01/08 10:37:19;;;;;;;14.02;9.98;;;;;;;;;;777872;176;916279;-65
2022/01/08 10:39:45;;;;;;;17.70;9.00;;;;;;;;;;784259;176;914836;-64
2022/01/08 10:42:11;;;;;;;15.30;9.07;;;;;;;;;;778604;176;918938;-64
2022/01/08 10:44:37;;;;;;;14.65;6.47;;;;;;;;;;780779;176;920334;-64
2022/01/08 10:47:05;;;;;;;11.12;6.97;;;;;;;;;;778297;177;935489;-64
2022/01/08 10:49:29;;;;;;;12.30;7.80;;;;;;;;;;781409;176;773069;-64
2022/01/08 10:51:56;;;;;;;16.60;8.90;;;;;;;;;;783931;176;633623;-64
2022/01/08 10:54:22;;;;;;;14.40;7.77;;;;;;;;;;783213;177;633333;-66
2022/01/08 10:56:50;;;;;;;15.33;7.83;;;;;;;;;;783350;177;919294;-64
2022/01/08 10:59:14;;;;;;;14.20;6.90;;;;;;;;;;781016;177;1020921;-63
2022/01/08 11:01:42;;;;;;;14.93;7.67;;;;;;;;;;778024;177;918344;-63
2022/01/08 11:04:08;;;;;;;13.20;6.40;;;;;;;;;;784249;176;915181;-63
2022/01/08 11:06:34;;;;;;;15.67;7.23;;;;;;;;;;779220;176;922215;-63
2022/01/08 11:09:00;;;;;;;14.70;6.77;;;;;;;;;;778668;177;913861;-63
2022/01/08 11:11:29;;;;;;;14.90;8.57;;;;;;;;;;786147;177;904434;-63
2022/01/08 11:13:53;;;;;;;8.00;4.77;;;;;;;;;;777564;177;922044;-62
2022/01/08 11:16:19;;;;;;;14.50;7.10;;;;;;;;;;777871;177;623287;-65
2022/01/08 11:18:45;;;;;;;12.20;7.00;;;;;;;;;;779203;178;626837;-63
2022/01/08 11:21:10;;;;;;;11.27;7.10;;;;;;;;;;774408;180;918977;-62
2022/01/08 11:23:36;;;;;;;10.87;7.43;;;;;;;;;;776399;177;919833;-62
2022/01/08 11:26:02;;;;;;;13.13;8.50;;;;;;;;;;780173;176;917602;-62
2022/01/08 11:28:31;;;;;;;11.60;9.20;;;;;;;;;;776844;180;625176;-65
2022/01/08 11:30:56;;;;;;;13.57;8.13;;;;;;;;;;793297;176;614567;-62
2022/01/08 11:33:27;;;;;;;12.87;8.10;;;;;;;;;;774067;179;633043;-62
2022/01/08 11:35:48;;;;;;;10.03;6.83;;;;;;;;;;772703;182;622913;-62
2022/01/08 11:38:15;;;;;;;14.40;7.37;;;;;;;;;;770262;181;918814;-62
2022/01/08 11:40:41;;;;;;;10.70;6.77;;;;;;;;;;783326;176;918412;-61
2022/01/08 11:43:07;;;;;;;10.37;6.93;;;;;;;;;;781730;179;1022037;-62
2022/01/08 11:45:33;;;;;;;9.87;5.70;;;;;;;;;;785726;176;919104;-62
2022/01/08 11:47:59;;;;;;;16.97;8.67;;;;;;;;;;780097;176;919816;-62
2022/01/08 11:50:24;;;;;;;17.27;9.00;;;;;;;;;;779537;177;921431;-61
2022/01/08 11:52:56;;;;;;;14.30;8.07;;;;;;;;;;777047;180;918198;-62
2022/01/08 11:55:28;;;;;;;14.83;7.13;;;;;;;;;;779332;177;972528;-62
2022/01/08 11:58:08;;;;;;;13.98;7.12;;;;;;;;;;769181;181;919067;-62
2022/01/08 12:00:40;;;;;;;10.97;7.83;;;;;;;;;;747403;184;921160;-62
2022/01/08 12:03:07;;;;;;;13.30;7.90;;;;;;;;;;777799;176;918650;-62
2022/01/08 12:05:32;;;;;;;14.87;7.83;;;;;;;;;;787270;176;919591;-62
2022/01/08 12:07:59;;;;;;;14.27;7.90;;;;;;;;;;781186;177;918987;-62
2022/01/08 12:10:29;;;;;;;10.23;7.53;;;;;;;;;;776930;176;916721;-62
2022/01/08 12:12:50;;;;;;;15.93;8.13;;;;;;;;;;786513;176;908678;-63
2022/01/08 12:15:15;;;;;;;10.90;7.33;;;;;;;;;;776038;179;920776;-63
2022/01/08 12:17:47;;;;;;;13.83;7.43;;;;;;;;;;776158;179;1064222;-62
2022/01/08 12:20:13;;;;;;;12.30;5.97;;;;;;;;;;785991;177;920551;-63
2022/01/08 12:22:39;;;;;;;11.82;7.75;;;;;;;;;;782009;176;918448;-63
2022/01/08 12:25:05;;;;;;;11.27;7.12;;;;;;;;;;781728;177;924099;-63
2022/01/08 12:27:37;;;;;;;13.03;7.70;;;;;;;;;;787280;179;920112;-63
2022/01/08 12:30:05;;;;;;;12.55;7.10;;;;;;;;;;788220;176;915566;-62
2022/01/08 12:32:36;;;;;;;10.03;7.10;;;;;;;;;;782178;176;922969;-63
2022/01/08 12:35:17;;;;;;;11.10;7.75;;;;;;;;;;780846;176;921629;-63
2022/01/08 12:37:41;;;;;;;13.68;8.38;;;;;;;;;;776054;177;977839;-63
2022/01/08 12:40:07;;;;;;;8.83;6.93;;;;;;;;;;786786;174;909667;-63
2022/01/08 12:42:33;;;;;;;17.90;8.97;;;;;;;;;;777228;178;919267;-63
2022/01/08 12:44:59;;;;;;;17.67;8.37;;;;;;;;;;785350;175;920151;-62
2022/01/08 12:47:45;;;;;;;14.37;8.67;;;;;;;;;;784810;176;919941;-63
2022/01/08 12:50:15;;;;;;;15.97;8.37;;;;;;;;;;784520;176;920027;-63
2022/01/08 12:52:41;;;;;;;13.55;8.95;;;;;;;;;;792138;176;919216;-63
2022/01/08 12:55:11;;;;;;;15.20;9.10;;;;;;;;;;781675;177;923991;-63
2022/01/08 12:57:37;;;;;;;14.23;8.38;;;;;;;;;;785452;176;911853;-63
2022/01/08 13:00:03;;;;;;;16.43;8.70;;;;;;;;;;780911;177;919544;-63
2022/01/08 13:02:28;;;;;;;15.43;9.43;;;;;;;;;;781466;176;918411;-63
2022/01/08 13:04:54;;;;;;;16.60;8.70;;;;;;;;;;790698;175;916480;-63
2022/01/08 13:07:20;;;;;;;11.13;7.20;;;;;;;;;;791792;176;913650;-64
2022/01/08 13:09:46;;;;;;;13.13;8.80;;;;;;;;;;785554;176;916062;-64
2022/01/08 13:12:12;;;;;;;13.02;7.85;;;;;;;;;;779560;177;916750;-62
2022/01/08 13:14:38;;;;;;;13.20;8.83;;;;;;;;;;777798;177;911948;-64
2022/01/08 13:17:04;;;;;;;18.60;9.43;;;;;;;;;;781254;176;916456;-64
2022/01/08 13:19:29;;;;;;;17.10;9.27;;;;;;;;;;778380;177;910403;-63
2022/01/08 13:21:55;;;;;;;15.70;8.83;;;;;;;;;;779143;177;876291;-64
2022/01/08 13:24:22;;;;;;;13.03;8.50;;;;;;;;;;784665;177;919043;-64
2022/01/08 13:26:50;;;;;;;13.00;7.57;;;;;;;;;;780238;177;919784;-65
2022/01/08 13:29:18;;;;;;;12.47;8.90;;;;;;;;;;782661;177;914282;-64
2022/01/08 13:31:47;;;;;;;12.10;8.60;;;;;;;;;;784535;177;973908;-64
2022/01/08 13:34:13;;;;;;;15.60;9.17;;;;;;;;;;781992;177;917653;-64
2022/01/08 13:36:45;;;;;;;17.70;10.95;;;;;;;;;;780039;177;919270;-64
2022/01/08 13:39:12;;;;;;;20.00;10.00;;;;;;;;;;779871;177;918748;-64
2022/01/08 13:41:38;;;;;;;17.00;11.00;;;;;;;;;;783772;177;918438;-65
2022/01/08 13:44:04;;;;;;;22.83;11.00;;;;;;;;;;777069;176;1018550;-63
2022/01/08 13:46:30;;;;;;;23.75;10.20;;;;;;;;;;783079;176;919798;-65
2022/01/08 13:48:56;;;;;;;17.67;9.17;;;;;;;;;;772400;180;918250;-65
2022/01/08 13:51:24;;;;;;;18.17;10.63;;;;;;;;;;768806;180;919981;-64
2022/01/08 13:53:54;;;;;;;23.65;11.65;;;;;;;;;;782065;176;1019769;-65
2022/01/08 13:56:23;;;;;;;21.98;11.93;;;;;;;;;;773486;176;1020981;-64
2022/01/08 13:58:48;;;;;;;20.70;11.33;;;;;;;;;;785879;176;917850;-64
2022/01/08 14:01:14;;;;;;;21.53;10.77;;;;;;;;;;787985;175;918679;-64
2022/01/08 14:03:40;;;;;;;16.50;9.53;;;;;;;;;;784170;175;920988;-64
2022/01/08 14:06:06;;;;;;;16.80;10.03;;;;;;;;;;785408;176;918646;-64
2022/01/08 14:08:32;;;;;;;20.07;10.37;;;;;;;;;;781036;177;918853;-65
2022/01/08 14:10:57;;;;;;;16.80;10.50;;;;;;;;;;778199;177;906140;-65
2022/01/08 14:13:23;;;;;;;13.80;9.10;;;;;;;;;;785570;177;917758;-65
2022/01/08 14:15:54;;;;;;;20.13;10.60;;;;;;;;;;780589;176;944630;-64
2022/01/08 14:18:19;;;;;;;18.53;9.90;;;;;;;;;;781962;176;1035317;-65